Aérodrome :
LOGIN :

S'inscrire | Disclaimer

   EN    FR    IT 

 










Légende :    VFR   VFR Marginal   IFR   IFR Intensif   IFR Très Intensif
Visi : 
Plafond : 
>= 8 km
>= 3000ft
5 à 8 km
1000 à 3000 ft
1500m à 5 km
500 à 1000 ft
800 à 1500m
200 à 500 ft
< 800m
< 200 ft
Symboles :   Orages  Brouillard  Fortes neiges  Fortes précipitations  Vent > 20 kt
SIGMETs :   Divers  Orages  Givrage  Turbulence  Onde Orograph.  Cendres Volcan.






- Altitude de l'aérodrome : 157 ft
- Code IATA : LIL


LFQQ - Lille Lesquin

DERNIER METAR :
  • 291400Z AUTO 04005KT 1400 1200 R26/2600U R08/1900N BR OVC002 04/03 Q1025 TEMPO 6000 BECMG VV///

METARs EXPIRÉS :
  • 291330Z AUTO 03005KT 1600 1200 R26/2400D R08/2000D BR OVC002 04/03 Q1025 TEMPO 6000 BECMG VV///
  • 291300Z AUTO 05005KT 1600 1300 R26/2300D R08/1700U BR VV/// 03/03 Q1025 TEMPO 6000
  • 291230Z AUTO 06004KT 030V100 0900 0650 R26/1400N R08/1400D FG VV/// 04/03 Q1025 TEMPO 6000 SCT008
  • 291200Z AUTO 06006KT 0800 0600 R26/1500D R08/1000U FG VV/// 03/03 Q1025 TEMPO 2000 BR OVC005
  • 291130Z AUTO 08007KT 0800 0700 R26/1400U R08/0900N FG VV/// 03/03 Q1025 BECMG 6000 NSW OVC005
  • 291100Z AUTO 04005KT 0700 0600 R26/1100D R08/1000D FG VV/// 03/03 Q1025 BECMG 6000 NSW OVC005

TAF AMD TAF LFQQ
Valide du 29 à 12h jusqu'au 30 à 18h UTC


291223Z 2912/3018 04007KT 0800 FG VV///
TEMPO 2912/2914 2000 BR OVC005
TEMPO 2914/2917 6000 SCT008
BECMG 2923/3002 0400 FZFG VV///
BECMG 3008/3011 20010KT 2000 BR OVC002
ATIS : +33 3 20 16 19 54



MET'MAP, la Météo Aéronautique d'un coup d'oeil ! - Copyright ORBIFLY Décembre 2007 - Disclaimer

ORBIFLY MET'MAP TEAM :

Programmation & Développement : Alexandra Zaïnal
Sur une idée originale de : Baudouin d'Aumeries
Assistance à la programmation : Marc-Olivier Méhu
Soutien technique & logistique : Manuel Goepfert

Contact : metmap@orbifly.com




SOURCES & CREDITS :

   NOAA